sensor_id;sensor_type;location;lat;lon;timestamp;temperature;humidity
56137;DHT22;42008;52.934;5.884;2023-04-25T00:00:26;7.70;95.70
56137;DHT22;42008;52.934;5.884;2023-04-25T00:02:51;8.10;63.10
56137;DHT22;42008;52.934;5.884;2023-04-25T00:05:17;8.90;47.10
56137;DHT22;42008;52.934;5.884;2023-04-25T00:07:43;8.00;99.90
56137;DHT22;42008;52.934;5.884;2023-04-25T00:10:09;7.70;99.90
56137;DHT22;42008;52.934;5.884;2023-04-25T00:12:36;7.90;99.90
56137;DHT22;42008;52.934;5.884;2023-04-25T00:15:02;7.60;99.90
56137;DHT22;42008;52.934;5.884;2023-04-25T00:17:28;8.40;99.90
56137;DHT22;42008;52.934;5.884;2023-04-25T00:19:54;8.00;99.90
56137;DHT22;42008;52.934;5.884;2023-04-25T00:22:21;7.70;99.90
56137;DHT22;42008;52.934;5.884;2023-04-25T00:24:46;9.00;99.90
56137;DHT22;42008;52.934;5.884;2023-04-25T00:27:12;9.20;1.00
56137;DHT22;42008;52.934;5.884;2023-04-25T00:29:38;7.80;1.00
56137;DHT22;42008;52.934;5.884;2023-04-25T00:32:03;9.40;99.90
56137;DHT22;42008;52.934;5.884;2023-04-25T00:34:29;8.50;1.00
56137;DHT22;42008;52.934;5.884;2023-04-25T00:36:55;9.20;99.90
56137;DHT22;42008;52.934;5.884;2023-04-25T00:39:20;8.80;99.90
56137;DHT22;42008;52.934;5.884;2023-04-25T00:41:46;8.80;1.00
56137;DHT22;42008;52.934;5.884;2023-04-25T00:44:13;8.00;1.00
56137;DHT22;42008;52.934;5.884;2023-04-25T00:46:42;9.40;1.00
56137;DHT22;42008;52.934;5.884;2023-04-25T00:49:08;9.40;1.00
56137;DHT22;42008;52.934;5.884;2023-04-25T00:51:33;9.20;99.90
56137;DHT22;42008;52.934;5.884;2023-04-25T00:53:59;8.80;1.00
56137;DHT22;42008;52.934;5.884;2023-04-25T00:56:25;9.10;1.00
56137;DHT22;42008;52.934;5.884;2023-04-25T00:58:53;9.20;99.90
56137;DHT22;42008;52.934;5.884;2023-04-25T01:01:21;9.10;99.90
56137;DHT22;42008;52.934;5.884;2023-04-25T01:03:48;9.30;99.90
56137;DHT22;42008;52.934;5.884;2023-04-25T01:06:16;9.50;82.90
56137;DHT22;42008;52.934;5.884;2023-04-25T01:08:41;9.60;87.70
56137;DHT22;42008;52.934;5.884;2023-04-25T01:11:07;9.70;1.00
56137;DHT22;42008;52.934;5.884;2023-04-25T01:13:33;9.40;1.00
56137;DHT22;42008;52.934;5.884;2023-04-25T01:15:59;7.80;1.00
56137;DHT22;42008;52.934;5.884;2023-04-25T01:18:25;9.00;99.90
56137;DHT22;42008;52.934;5.884;2023-04-25T01:20:52;9.20;99.90
56137;DHT22;42008;52.934;5.884;2023-04-25T01:23:19;9.10;99.90
56137;DHT22;42008;52.934;5.884;2023-04-25T01:25:45;9.30;99.90
56137;DHT22;42008;52.934;5.884;2023-04-25T01:28:12;8.00;99.90
56137;DHT22;42008;52.934;5.884;2023-04-25T01:30:38;9.10;99.90
56137;DHT22;42008;52.934;5.884;2023-04-25T01:33:04;9.20;99.90
56137;DHT22;42008;52.934;5.884;2023-04-25T01:35:31;8.80;1.00
56137;DHT22;42008;52.934;5.884;2023-04-25T01:37:57;9.40;99.90
56137;DHT22;42008;52.934;5.884;2023-04-25T01:40:24;8.10;99.90
56137;DHT22;42008;52.934;5.884;2023-04-25T01:42:51;8.00;99.90
56137;DHT22;42008;52.934;5.884;2023-04-25T01:45:17;8.80;99.90
56137;DHT22;42008;52.934;5.884;2023-04-25T01:47:43;9.10;1.00
56137;DHT22;42008;52.934;5.884;2023-04-25T01:50:14;9.30;99.90
56137;DHT22;42008;52.934;5.884;2023-04-25T01:52:40;9.00;99.90
56137;DHT22;42008;52.934;5.884;2023-04-25T01:55:06;8.90;1.00
56137;DHT22;42008;52.934;5.884;2023-04-25T01:57:31;8.50;99.90
56137;DHT22;42008;52.934;5.884;2023-04-25T02:00:00;8.70;99.90
56137;DHT22;42008;52.934;5.884;2023-04-25T02:02:26;8.90;99.90
56137;DHT22;42008;52.934;5.884;2023-04-25T02:04:52;7.90;99.90
56137;DHT22;42008;52.934;5.884;2023-04-25T02:07:17;8.60;99.90
56137;DHT22;42008;52.934;5.884;2023-04-25T02:09:43;9.20;99.90
56137;DHT22;42008;52.934;5.884;2023-04-25T02:12:10;7.70;1.00
56137;DHT22;42008;52.934;5.884;2023-04-25T02:14:35;8.10;1.00
56137;DHT22;42008;52.934;5.884;2023-04-25T02:17:01;8.10;1.00
56137;DHT22;42008;52.934;5.884;2023-04-25T02:19:27;9.10;1.00
56137;DHT22;42008;52.934;5.884;2023-04-25T02:21:52;9.10;55.70
56137;DHT22;42008;52.934;5.884;2023-04-25T02:24:18;7.70;99.90
56137;DHT22;42008;52.934;5.884;2023-04-25T02:26:43;9.20;52.20
56137;DHT22;42008;52.934;5.884;2023-04-25T02:29:10;8.20;1.00
56137;DHT22;42008;52.934;5.884;2023-04-25T02:31:35;7.90;1.00
56137;DHT22;42008;52.934;5.884;2023-04-25T02:34:01;9.00;1.00
56137;DHT22;42008;52.934;5.884;2023-04-25T02:36:26;9.20;99.90
56137;DHT22;42008;52.934;5.884;2023-04-25T02:38:53;9.30;99.90
56137;DHT22;42008;52.934;5.884;2023-04-25T02:41:18;8.70;99.90
56137;DHT22;42008;52.934;5.884;2023-04-25T02:43:44;7.80;99.90
56137;DHT22;42008;52.934;5.884;2023-04-25T02:46:09;8.70;99.90
56137;DHT22;42008;52.934;5.884;2023-04-25T02:48:35;7.50;99.90
56137;DHT22;42008;52.934;5.884;2023-04-25T02:51:00;7.50;1.00
56137;DHT22;42008;52.934;5.884;2023-04-25T02:53:26;7.90;1.00
56137;DHT22;42008;52.934;5.884;2023-04-25T02:55:52;7.90;1.00
56137;DHT22;42008;52.934;5.884;2023-04-25T02:58:18;7.90;1.00
56137;DHT22;42008;52.934;5.884;2023-04-25T03:00:44;8.30;1.00
56137;DHT22;42008;52.934;5.884;2023-04-25T03:03:09;7.90;1.00
56137;DHT22;42008;52.934;5.884;2023-04-25T03:05:35;7.60;99.90
56137;DHT22;42008;52.934;5.884;2023-04-25T03:08:00;7.80;99.90
56137;DHT22;42008;52.934;5.884;2023-04-25T03:10:26;7.80;99.90
56137;DHT22;42008;52.934;5.884;2023-04-25T03:12:51;7.90;99.90
56137;DHT22;42008;52.934;5.884;2023-04-25T03:15:17;8.70;99.90
56137;DHT22;42008;52.934;5.884;2023-04-25T03:17:43;8.30;99.90
56137;DHT22;42008;52.934;5.884;2023-04-25T03:20:10;7.50;99.90
56137;DHT22;42008;52.934;5.884;2023-04-25T03:22:36;7.20;86.00
56137;DHT22;42008;52.934;5.884;2023-04-25T03:25:01;8.90;99.90
56137;DHT22;42008;52.934;5.884;2023-04-25T03:27:27;8.30;99.90
56137;DHT22;42008;52.934;5.884;2023-04-25T03:29:52;8.10;99.90
56137;DHT22;42008;52.934;5.884;2023-04-25T03:32:18;7.90;99.90
56137;DHT22;42008;52.934;5.884;2023-04-25T03:34:43;7.90;1.00
56137;DHT22;42008;52.934;5.884;2023-04-25T03:37:09;6.70;99.90
56137;DHT22;42008;52.934;5.884;2023-04-25T03:39:35;7.60;99.90
56137;DHT22;42008;52.934;5.884;2023-04-25T03:42:01;7.60;1.00
56137;DHT22;42008;52.934;5.884;2023-04-25T03:44:26;7.90;1.00
56137;DHT22;42008;52.934;5.884;2023-04-25T03:46:52;7.60;1.00
56137;DHT22;42008;52.934;5.884;2023-04-25T03:49:17;7.40;1.00
56137;DHT22;42008;52.934;5.884;2023-04-25T03:51:43;7.70;1.00
56137;DHT22;42008;52.934;5.884;2023-04-25T03:54:08;7.60;1.00
56137;DHT22;42008;52.934;5.884;2023-04-25T03:56:34;8.10;1.00
56137;DHT22;42008;52.934;5.884;2023-04-25T03:59:00;8.20;1.00
56137;DHT22;42008;52.934;5.884;2023-04-25T04:01:25;7.50;1.00
56137;DHT22;42008;52.934;5.884;2023-04-25T04:03:51;8.30;1.00
56137;DHT22;42008;52.934;5.884;2023-04-25T04:06:17;7.50;1.00
56137;DHT22;42008;52.934;5.884;2023-04-25T04:08:43;7.60;1.00
56137;DHT22;42008;52.934;5.884;2023-04-25T04:11:08;7.40;1.00
56137;DHT22;42008;52.934;5.884;2023-04-25T04:13:34;7.70;99.90
56137;DHT22;42008;52.934;5.884;2023-04-25T04:15:59;8.00;99.90
56137;DHT22;42008;52.934;5.884;2023-04-25T04:18:25;7.80;1.00
56137;DHT22;42008;52.934;5.884;2023-04-25T04:20:51;8.00;1.00
56137;DHT22;42008;52.934;5.884;2023-04-25T04:23:16;7.50;1.00
56137;DHT22;42008;52.934;5.884;2023-04-25T04:25:42;7.50;92.20
56137;DHT22;42008;52.934;5.884;2023-04-25T04:28:07;7.80;99.90
56137;DHT22;42008;52.934;5.884;2023-04-25T04:30:33;7.60;99.90
56137;DHT22;42008;52.934;5.884;2023-04-25T04:33:02;7.80;99.90
56137;DHT22;42008;52.934;5.884;2023-04-25T04:35:28;7.50;99.90
56137;DHT22;42008;52.934;5.884;2023-04-25T04:37:53;7.20;99.90
56137;DHT22;42008;52.934;5.884;2023-04-25T04:40:20;6.30;99.90
56137;DHT22;42008;52.934;5.884;2023-04-25T04:42:47;7.50;99.90
56137;DHT22;42008;52.934;5.884;2023-04-25T04:45:13;7.10;99.90
56137;DHT22;42008;52.934;5.884;2023-04-25T04:47:39;6.10;99.90
56137;DHT22;42008;52.934;5.884;2023-04-25T04:50:09;7.50;1.00
56137;DHT22;42008;52.934;5.884;2023-04-25T04:52:35;7.70;99.90
56137;DHT22;42008;52.934;5.884;2023-04-25T04:55:02;7.40;1.00
56137;DHT22;42008;52.934;5.884;2023-04-25T04:57:29;7.60;1.00
56137;DHT22;42008;52.934;5.884;2023-04-25T04:59:55;7.60;15.50
56137;DHT22;42008;52.934;5.884;2023-04-25T05:02:20;7.40;11.70
56137;DHT22;42008;52.934;5.884;2023-04-25T05:04:46;7.90;1.00
56137;DHT22;42008;52.934;5.884;2023-04-25T05:07:12;7.80;1.00
56137;DHT22;42008;52.934;5.884;2023-04-25T05:09:37;8.40;99.90
56137;DHT22;42008;52.934;5.884;2023-04-25T05:12:03;7.50;99.90
56137;DHT22;42008;52.934;5.884;2023-04-25T05:14:29;8.30;1.00
56137;DHT22;42008;52.934;5.884;2023-04-25T05:16:55;7.40;1.00
56137;DHT22;42008;52.934;5.884;2023-04-25T05:19:20;7.70;99.90
56137;DHT22;42008;52.934;5.884;2023-04-25T05:21:46;7.30;99.90
56137;DHT22;42008;52.934;5.884;2023-04-25T05:24:12;7.30;99.90
56137;DHT22;42008;52.934;5.884;2023-04-25T05:26:38;7.80;99.90
56137;DHT22;42008;52.934;5.884;2023-04-25T05:29:03;7.70;99.90
56137;DHT22;42008;52.934;5.884;2023-04-25T05:31:29;7.40;99.90
56137;DHT22;42008;52.934;5.884;2023-04-25T05:33:54;8.60;99.90
56137;DHT22;42008;52.934;5.884;2023-04-25T05:36:20;7.90;99.90
56137;DHT22;42008;52.934;5.884;2023-04-25T05:38:46;7.90;99.90
56137;DHT22;42008;52.934;5.884;2023-04-25T05:41:11;7.40;25.70
56137;DHT22;42008;52.934;5.884;2023-04-25T05:43:37;7.90;99.90
56137;DHT22;42008;52.934;5.884;2023-04-25T05:46:02;7.30;99.90
56137;DHT22;42008;52.934;5.884;2023-04-25T05:48:28;8.30;99.90
56137;DHT22;42008;52.934;5.884;2023-04-25T05:50:53;8.70;99.90
56137;DHT22;42008;52.934;5.884;2023-04-25T05:53:20;7.50;99.90
56137;DHT22;42008;52.934;5.884;2023-04-25T05:55:46;7.80;99.90
56137;DHT22;42008;52.934;5.884;2023-04-25T05:58:12;8.10;1.00
56137;DHT22;42008;52.934;5.884;2023-04-25T06:00:37;7.70;1.00
56137;DHT22;42008;52.934;5.884;2023-04-25T06:03:04;8.80;1.00
56137;DHT22;42008;52.934;5.884;2023-04-25T06:05:29;8.70;99.90
56137;DHT22;42008;52.934;5.884;2023-04-25T06:07:55;8.00;99.90
56137;DHT22;42008;52.934;5.884;2023-04-25T06:10:21;9.00;99.90
56137;DHT22;42008;52.934;5.884;2023-04-25T06:12:47;8.70;1.00
56137;DHT22;42008;52.934;5.884;2023-04-25T06:15:13;10.50;1.00
56137;DHT22;42008;52.934;5.884;2023-04-25T06:17:39;9.20;1.00
56137;DHT22;42008;52.934;5.884;2023-04-25T06:20:05;8.90;99.90
56137;DHT22;42008;52.934;5.884;2023-04-25T06:22:31;8.50;99.90
56137;DHT22;42008;52.934;5.884;2023-04-25T06:24:56;9.30;1.00
56137;DHT22;42008;52.934;5.884;2023-04-25T06:27:24;9.00;99.90
56137;DHT22;42008;52.934;5.884;2023-04-25T06:29:49;9.20;1.00
56137;DHT22;42008;52.934;5.884;2023-04-25T06:32:15;9.30;99.90
56137;DHT22;42008;52.934;5.884;2023-04-25T06:34:40;9.20;1.00
56137;DHT22;42008;52.934;5.884;2023-04-25T06:37:06;9.40;99.90
56137;DHT22;42008;52.934;5.884;2023-04-25T06:39:31;9.50;99.90
56137;DHT22;42008;52.934;5.884;2023-04-25T06:41:57;9.10;99.90
56137;DHT22;42008;52.934;5.884;2023-04-25T06:44:23;10.60;99.90
56137;DHT22;42008;52.934;5.884;2023-04-25T06:46:49;9.50;99.90
56137;DHT22;42008;52.934;5.884;2023-04-25T06:49:15;9.50;99.90
56137;DHT22;42008;52.934;5.884;2023-04-25T06:51:40;10.00;99.90
56137;DHT22;42008;52.934;5.884;2023-04-25T06:54:06;9.20;99.90
56137;DHT22;42008;52.934;5.884;2023-04-25T06:56:32;9.50;99.90
56137;DHT22;42008;52.934;5.884;2023-04-25T06:58:57;10.90;99.90
56137;DHT22;42008;52.934;5.884;2023-04-25T07:01:23;9.60;99.90
56137;DHT22;42008;52.934;5.884;2023-04-25T07:03:48;8.80;99.90
56137;DHT22;42008;52.934;5.884;2023-04-25T07:06:14;9.60;99.90
56137;DHT22;42008;52.934;5.884;2023-04-25T07:08:40;10.70;99.90
56137;DHT22;42008;52.934;5.884;2023-04-25T07:11:05;10.90;99.90
56137;DHT22;42008;52.934;5.884;2023-04-25T07:13:31;9.90;99.90
56137;DHT22;42008;52.934;5.884;2023-04-25T07:15:56;9.70;99.90
56137;DHT22;42008;52.934;5.884;2023-04-25T07:18:22;9.40;99.90
56137;DHT22;42008;52.934;5.884;2023-04-25T07:20:48;9.30;99.90
56137;DHT22;42008;52.934;5.884;2023-04-25T07:23:13;9.60;1.00
56137;DHT22;42008;52.934;5.884;2023-04-25T07:25:39;9.50;1.00
56137;DHT22;42008;52.934;5.884;2023-04-25T07:28:04;8.00;47.40
56137;DHT22;42008;52.934;5.884;2023-04-25T07:30:30;9.00;99.90
56137;DHT22;42008;52.934;5.884;2023-04-25T07:32:56;8.40;99.90
56137;DHT22;42008;52.934;5.884;2023-04-25T07:35:22;8.00;99.90
56137;DHT22;42008;52.934;5.884;2023-04-25T07:37:47;8.40;99.90
56137;DHT22;42008;52.934;5.884;2023-04-25T07:40:13;9.10;99.90
56137;DHT22;42008;52.934;5.884;2023-04-25T07:42:41;7.80;99.90
56137;DHT22;42008;52.934;5.884;2023-04-25T07:45:07;8.80;99.90
56137;DHT22;42008;52.934;5.884;2023-04-25T07:47:32;8.60;99.90
56137;DHT22;42008;52.934;5.884;2023-04-25T07:49:58;9.80;99.90
56137;DHT22;42008;52.934;5.884;2023-04-25T07:52:23;9.00;99.90
56137;DHT22;42008;52.934;5.884;2023-04-25T07:54:49;9.70;1.00
56137;DHT22;42008;52.934;5.884;2023-04-25T07:57:14;8.90;99.90
56137;DHT22;42008;52.934;5.884;2023-04-25T07:59:42;9.10;1.00
56137;DHT22;42008;52.934;5.884;2023-04-25T08:02:07;9.20;99.90
56137;DHT22;42008;52.934;5.884;2023-04-25T08:04:33;9.40;1.00
56137;DHT22;42008;52.934;5.884;2023-04-25T08:06:59;10.70;1.00
56137;DHT22;42008;52.934;5.884;2023-04-25T08:09:25;9.80;99.90
56137;DHT22;42008;52.934;5.884;2023-04-25T08:11:51;11.10;1.00
56137;DHT22;42008;52.934;5.884;2023-04-25T08:14:16;11.20;1.00
56137;DHT22;42008;52.934;5.884;2023-04-25T08:16:42;9.50;1.00
56137;DHT22;42008;52.934;5.884;2023-04-25T08:19:08;8.10;1.00
56137;DHT22;42008;52.934;5.884;2023-04-25T08:21:33;8.00;99.90
56137;DHT22;42008;52.934;5.884;2023-04-25T08:23:59;9.40;99.90
56137;DHT22;42008;52.934;5.884;2023-04-25T08:26:25;9.60;1.00
56137;DHT22;42008;52.934;5.884;2023-04-25T08:28:51;9.50;99.90
56137;DHT22;42008;52.934;5.884;2023-04-25T08:31:17;9.00;99.90
56137;DHT22;42008;52.934;5.884;2023-04-25T08:33:42;9.30;99.90
56137;DHT22;42008;52.934;5.884;2023-04-25T08:36:09;9.40;1.00
56137;DHT22;42008;52.934;5.884;2023-04-25T08:38:34;10.40;1.00
56137;DHT22;42008;52.934;5.884;2023-04-25T08:41:00;10.20;1.00
56137;DHT22;42008;52.934;5.884;2023-04-25T08:43:29;10.90;1.00
56137;DHT22;42008;52.934;5.884;2023-04-25T08:45:59;10.70;99.90
56137;DHT22;42008;52.934;5.884;2023-04-25T08:48:27;10.60;1.00
56137;DHT22;42008;52.934;5.884;2023-04-25T08:50:54;10.90;1.00
56137;DHT22;42008;52.934;5.884;2023-04-25T08:53:25;10.60;99.90
56137;DHT22;42008;52.934;5.884;2023-04-25T08:55:52;11.30;1.00
56137;DHT22;42008;52.934;5.884;2023-04-25T08:58:19;10.80;99.90
56137;DHT22;42008;52.934;5.884;2023-04-25T09:00:46;11.10;1.00
56137;DHT22;42008;52.934;5.884;2023-04-25T09:03:12;10.70;99.90
56137;DHT22;42008;52.934;5.884;2023-04-25T09:05:40;10.80;99.90
56137;DHT22;42008;52.934;5.884;2023-04-25T09:08:05;11.40;99.90
56137;DHT22;42008;52.934;5.884;2023-04-25T09:10:32;11.00;99.90
56137;DHT22;42008;52.934;5.884;2023-04-25T09:15:52;10.30;99.90
56137;DHT22;42008;52.934;5.884;2023-04-25T09:18:29;12.20;99.90
56137;DHT22;42008;52.934;5.884;2023-04-25T09:21:06;11.90;99.90
56137;DHT22;42008;52.934;5.884;2023-04-25T09:23:44;11.90;99.90
56137;DHT22;42008;52.934;5.884;2023-04-25T09:26:14;12.10;99.90
56137;DHT22;42008;52.934;5.884;2023-04-25T09:28:40;11.10;99.90
56137;DHT22;42008;52.934;5.884;2023-04-25T09:31:06;11.10;99.90
56137;DHT22;42008;52.934;5.884;2023-04-25T09:33:33;10.50;1.00
56137;DHT22;42008;52.934;5.884;2023-04-25T09:36:05;10.60;75.60
56137;DHT22;42008;52.934;5.884;2023-04-25T09:38:32;9.60;99.90
56137;DHT22;42008;52.934;5.884;2023-04-25T09:40:58;9.10;99.90
56137;DHT22;42008;52.934;5.884;2023-04-25T09:43:24;9.20;1.00
56137;DHT22;42008;52.934;5.884;2023-04-25T09:45:54;8.30;1.00
56137;DHT22;42008;52.934;5.884;2023-04-25T09:48:25;9.40;1.00
56137;DHT22;42008;52.934;5.884;2023-04-25T09:53:37;9.50;1.00
56137;DHT22;42008;52.934;5.884;2023-04-25T09:56:04;8.70;99.90
56137;DHT22;42008;52.934;5.884;2023-04-25T09:58:31;8.30;1.00
56137;DHT22;42008;52.934;5.884;2023-04-25T10:01:00;8.60;1.00
56137;DHT22;42008;52.934;5.884;2023-04-25T10:03:26;8.50;1.00
56137;DHT22;42008;52.934;5.884;2023-04-25T10:05:53;8.80;7.70
56137;DHT22;42008;52.934;5.884;2023-04-25T10:08:20;9.10;3.30
56137;DHT22;42008;52.934;5.884;2023-04-25T10:10:46;9.50;99.90
56137;DHT22;42008;52.934;5.884;2023-04-25T10:13:14;9.20;1.00
56137;DHT22;42008;52.934;5.884;2023-04-25T10:15:40;9.50;99.90
56137;DHT22;42008;52.934;5.884;2023-04-25T10:18:06;10.40;99.90
56137;DHT22;42008;52.934;5.884;2023-04-25T10:20:32;10.40;1.00
56137;DHT22;42008;52.934;5.884;2023-04-25T10:23:06;10.90;1.00
56137;DHT22;42008;52.934;5.884;2023-04-25T10:25:36;10.80;1.00
56137;DHT22;42008;52.934;5.884;2023-04-25T10:28:03;11.00;1.00
56137;DHT22;42008;52.934;5.884;2023-04-25T10:30:29;10.10;1.00
56137;DHT22;42008;52.934;5.884;2023-04-25T10:32:55;10.80;1.00
56137;DHT22;42008;52.934;5.884;2023-04-25T10:35:27;10.90;1.00
56137;DHT22;42008;52.934;5.884;2023-04-25T10:38:02;11.10;1.00
56137;DHT22;42008;52.934;5.884;2023-04-25T10:40:28;10.80;1.00
56137;DHT22;42008;52.934;5.884;2023-04-25T10:42:55;11.80;1.00
56137;DHT22;42008;52.934;5.884;2023-04-25T10:45:51;12.20;99.90
56137;DHT22;42008;52.934;5.884;2023-04-25T10:48:28;10.60;99.90
56137;DHT22;42008;52.934;5.884;2023-04-25T10:51:31;11.50;99.90
56137;DHT22;42008;52.934;5.884;2023-04-25T10:54:02;10.30;99.90
56137;DHT22;42008;52.934;5.884;2023-04-25T10:56:29;11.00;99.90
56137;DHT22;42008;52.934;5.884;2023-04-25T10:59:08;12.20;99.90
56137;DHT22;42008;52.934;5.884;2023-04-25T11:01:53;11.40;99.90
56137;DHT22;42008;52.934;5.884;2023-04-25T11:04:24;11.80;99.90
56137;DHT22;42008;52.934;5.884;2023-04-25T11:09:28;11.60;99.90
56137;DHT22;42008;52.934;5.884;2023-04-25T11:11:55;10.50;99.90
56137;DHT22;42008;52.934;5.884;2023-04-25T11:14:21;11.30;99.90
56137;DHT22;42008;52.934;5.884;2023-04-25T11:16:47;10.90;99.90
56137;DHT22;42008;52.934;5.884;2023-04-25T11:19:12;11.80;99.90
56137;DHT22;42008;52.934;5.884;2023-04-25T11:21:38;11.10;99.90
56137;DHT22;42008;52.934;5.884;2023-04-25T11:24:04;11.40;99.90
56137;DHT22;42008;52.934;5.884;2023-04-25T11:26:30;11.90;99.90
56137;DHT22;42008;52.934;5.884;2023-04-25T11:28:59;11.20;99.90
56137;DHT22;42008;52.934;5.884;2023-04-25T11:31:29;10.90;99.90
56137;DHT22;42008;52.934;5.884;2023-04-25T11:33:56;12.60;99.90
56137;DHT22;42008;52.934;5.884;2023-04-25T11:36:23;11.30;99.90
56137;DHT22;42008;52.934;5.884;2023-04-25T11:38:50;10.70;99.90
56137;DHT22;42008;52.934;5.884;2023-04-25T11:41:17;11.50;1.00
56137;DHT22;42008;52.934;5.884;2023-04-25T11:43:43;8.70;99.90
56137;DHT22;42008;52.934;5.884;2023-04-25T11:46:09;8.70;16.90
56137;DHT22;42008;52.934;5.884;2023-04-25T11:48:39;9.80;76.30
56137;DHT22;42008;52.934;5.884;2023-04-25T11:51:05;9.10;1.00
56137;DHT22;42008;52.934;5.884;2023-04-25T11:53:31;10.50;1.00
56137;DHT22;42008;52.934;5.884;2023-04-25T11:55:56;10.30;1.00
56137;DHT22;42008;52.934;5.884;2023-04-25T11:58:22;9.80;1.00
56137;DHT22;42008;52.934;5.884;2023-04-25T12:00:48;10.70;1.00
56137;DHT22;42008;52.934;5.884;2023-04-25T12:03:13;12.00;1.00
56137;DHT22;42008;52.934;5.884;2023-04-25T12:05:39;12.10;99.90
56137;DHT22;42008;52.934;5.884;2023-04-25T12:08:15;12.80;99.90
56137;DHT22;42008;52.934;5.884;2023-04-25T12:10:43;11.30;99.90
56137;DHT22;42008;52.934;5.884;2023-04-25T12:13:25;11.00;99.90
56137;DHT22;42008;52.934;5.884;2023-04-25T12:15:53;10.80;99.90
56137;DHT22;42008;52.934;5.884;2023-04-25T12:18:20;10.80;99.90
56137;DHT22;42008;52.934;5.884;2023-04-25T12:20:48;11.60;99.90
56137;DHT22;42008;52.934;5.884;2023-04-25T12:23:13;10.80;99.90
56137;DHT22;42008;52.934;5.884;2023-04-25T12:25:40;10.70;99.90
56137;DHT22;42008;52.934;5.884;2023-04-25T12:28:10;11.50;99.90
56137;DHT22;42008;52.934;5.884;2023-04-25T12:30:56;12.40;99.90
56137;DHT22;42008;52.934;5.884;2023-04-25T12:33:23;12.90;99.90
56137;DHT22;42008;52.934;5.884;2023-04-25T12:35:48;11.20;99.90
56137;DHT22;42008;52.934;5.884;2023-04-25T12:40:46;11.80;99.90
56137;DHT22;42008;52.934;5.884;2023-04-25T12:43:12;12.70;99.90
56137;DHT22;42008;52.934;5.884;2023-04-25T12:45:37;12.40;99.90
56137;DHT22;42008;52.934;5.884;2023-04-25T12:48:03;12.70;99.90
56137;DHT22;42008;52.934;5.884;2023-04-25T12:50:29;12.20;99.90
56137;DHT22;42008;52.934;5.884;2023-04-25T12:52:54;12.60;99.90
56137;DHT22;42008;52.934;5.884;2023-04-25T12:55:20;12.90;99.90
56137;DHT22;42008;52.934;5.884;2023-04-25T12:57:45;11.20;99.90
56137;DHT22;42008;52.934;5.884;2023-04-25T13:00:11;11.80;99.90
56137;DHT22;42008;52.934;5.884;2023-04-25T13:02:40;11.30;99.90
56137;DHT22;42008;52.934;5.884;2023-04-25T13:05:06;10.60;99.90
56137;DHT22;42008;52.934;5.884;2023-04-25T13:07:31;10.00;99.90
56137;DHT22;42008;52.934;5.884;2023-04-25T13:09:57;10.40;99.90
56137;DHT22;42008;52.934;5.884;2023-04-25T13:12:22;10.40;99.90
56137;DHT22;42008;52.934;5.884;2023-04-25T13:14:48;10.40;99.90
56137;DHT22;42008;52.934;5.884;2023-04-25T13:17:14;10.80;99.90
56137;DHT22;42008;52.934;5.884;2023-04-25T13:19:39;12.50;99.90
56137;DHT22;42008;52.934;5.884;2023-04-25T13:22:05;12.50;99.90
56137;DHT22;42008;52.934;5.884;2023-04-25T13:24:30;12.50;99.90
56137;DHT22;42008;52.934;5.884;2023-04-25T13:26:56;11.10;99.90
56137;DHT22;42008;52.934;5.884;2023-04-25T13:29:22;10.40;1.00
56137;DHT22;42008;52.934;5.884;2023-04-25T13:31:47;8.70;99.90
56137;DHT22;42008;52.934;5.884;2023-04-25T13:34:13;8.50;99.90
56137;DHT22;42008;52.934;5.884;2023-04-25T13:36:38;7.20;46.20
56137;DHT22;42008;52.934;5.884;2023-04-25T13:39:04;6.90;99.90
56137;DHT22;42008;52.934;5.884;2023-04-25T13:41:30;8.80;99.90
56137;DHT22;42008;52.934;5.884;2023-04-25T13:43:57;8.60;99.90
56137;DHT22;42008;52.934;5.884;2023-04-25T13:46:22;9.10;25.50
56137;DHT22;42008;52.934;5.884;2023-04-25T13:48:48;10.60;1.00
56137;DHT22;42008;52.934;5.884;2023-04-25T13:51:15;11.50;1.00
56137;DHT22;42008;52.934;5.884;2023-04-25T13:53:41;12.30;1.00
56137;DHT22;42008;52.934;5.884;2023-04-25T13:56:06;11.40;1.00
56137;DHT22;42008;52.934;5.884;2023-04-25T13:58:32;11.50;99.90
56137;DHT22;42008;52.934;5.884;2023-04-25T14:00:58;10.80;99.90
56137;DHT22;42008;52.934;5.884;2023-04-25T14:03:24;11.00;99.90
56137;DHT22;42008;52.934;5.884;2023-04-25T14:05:50;12.20;1.00
56137;DHT22;42008;52.934;5.884;2023-04-25T14:08:16;12.90;99.90
56137;DHT22;42008;52.934;5.884;2023-04-25T14:10:41;11.80;99.90
56137;DHT22;42008;52.934;5.884;2023-04-25T14:13:07;12.60;99.90
56137;DHT22;42008;52.934;5.884;2023-04-25T14:15:33;15.10;99.90
56137;DHT22;42008;52.934;5.884;2023-04-25T14:17:59;14.50;70.50
56137;DHT22;42008;52.934;5.884;2023-04-25T14:20:25;12.90;1.00
56137;DHT22;42008;52.934;5.884;2023-04-25T14:22:51;12.80;20.60
56137;DHT22;42008;52.934;5.884;2023-04-25T14:25:19;12.60;43.90
56137;DHT22;42008;52.934;5.884;2023-04-25T14:27:44;10.80;99.80
56137;DHT22;42008;52.934;5.884;2023-04-25T14:30:18;12.60;99.90
56137;DHT22;42008;52.934;5.884;2023-04-25T14:32:44;13.80;1.00
56137;DHT22;42008;52.934;5.884;2023-04-25T14:35:10;14.80;1.00
56137;DHT22;42008;52.934;5.884;2023-04-25T14:37:36;13.30;29.30
56137;DHT22;42008;52.934;5.884;2023-04-25T14:40:02;11.60;40.60
56137;DHT22;42008;52.934;5.884;2023-04-25T14:42:28;11.40;99.90
56137;DHT22;42008;52.934;5.884;2023-04-25T14:44:54;11.00;99.90
56137;DHT22;42008;52.934;5.884;2023-04-25T14:47:19;11.10;99.90
56137;DHT22;42008;52.934;5.884;2023-04-25T14:49:45;10.70;99.90
56137;DHT22;42008;52.934;5.884;2023-04-25T14:52:16;10.90;99.90
56137;DHT22;42008;52.934;5.884;2023-04-25T14:54:42;10.50;99.90
56137;DHT22;42008;52.934;5.884;2023-04-25T14:57:07;10.80;61.90
56137;DHT22;42008;52.934;5.884;2023-04-25T14:59:33;11.10;99.90
56137;DHT22;42008;52.934;5.884;2023-04-25T15:01:58;11.40;99.90
56137;DHT22;42008;52.934;5.884;2023-04-25T15:04:24;12.00;77.70
56137;DHT22;42008;52.934;5.884;2023-04-25T15:06:49;13.40;99.90
56137;DHT22;42008;52.934;5.884;2023-04-25T15:09:15;14.40;82.60
56137;DHT22;42008;52.934;5.884;2023-04-25T15:11:42;12.20;99.90
56137;DHT22;42008;52.934;5.884;2023-04-25T15:14:07;11.50;99.90
56137;DHT22;42008;52.934;5.884;2023-04-25T15:16:33;13.30;99.90
56137;DHT22;42008;52.934;5.884;2023-04-25T15:18:58;15.20;99.90
56137;DHT22;42008;52.934;5.884;2023-04-25T15:21:24;13.20;1.00
56137;DHT22;42008;52.934;5.884;2023-04-25T15:23:50;13.20;1.00
56137;DHT22;42008;52.934;5.884;2023-04-25T15:26:16;13.50;1.00
56137;DHT22;42008;52.934;5.884;2023-04-25T15:28:42;12.40;1.00
56137;DHT22;42008;52.934;5.884;2023-04-25T15:31:08;12.70;39.40
56137;DHT22;42008;52.934;5.884;2023-04-25T15:33:33;13.60;1.00
56137;DHT22;42008;52.934;5.884;2023-04-25T15:35:59;12.60;1.00
56137;DHT22;42008;52.934;5.884;2023-04-25T15:38:24;12.20;72.90
56137;DHT22;42008;52.934;5.884;2023-04-25T15:40:51;14.50;14.60
56137;DHT22;42008;52.934;5.884;2023-04-25T15:43:17;14.70;1.00
56137;DHT22;42008;52.934;5.884;2023-04-25T15:45:42;14.80;1.00
56137;DHT22;42008;52.934;5.884;2023-04-25T15:48:08;15.70;1.00
56137;DHT22;42008;52.934;5.884;2023-04-25T15:50:34;16.70;1.00